createdAt,value
2023-05-24T00:02:08.899Z,57438.47
2023-05-24T00:04:35.790Z,57455.16
2023-05-24T00:07:03.676Z,57473.97
2023-05-24T00:09:31.440Z,57440.56
2023-05-24T00:11:58.325Z,57488.56
2023-05-24T00:14:25.900Z,57428.03
2023-05-24T00:16:53.019Z,57444.72
2023-05-24T00:19:22.467Z,57407.16
2023-05-24T00:21:49.677Z,57442.66
2023-05-24T00:24:17.417Z,57430.13
2023-05-24T00:26:44.957Z,57467.69
2023-05-24T00:29:12.391Z,57455.16
2023-05-24T00:31:39.124Z,57446.81
2023-05-24T00:34:06.588Z,57517.78
2023-05-24T00:36:34.047Z,57463.53
2023-05-24T00:39:00.974Z,57430.13
2023-05-24T00:41:27.594Z,57476.03
2023-05-24T00:43:55.584Z,57428.03
2023-05-24T00:46:32.090Z,57486.47
2023-05-24T00:49:00.474Z,57482.31
2023-05-24T00:51:28.094Z,57413.44
2023-05-24T00:53:55.665Z,57482.31
2023-05-24T00:56:23.140Z,57459.34
2023-05-24T00:58:54.683Z,57419.69
2023-05-24T01:01:25.991Z,57457.25
2023-05-24T01:03:57.504Z,57484.41
2023-05-24T01:06:27.253Z,57428.03
2023-05-24T01:09:10.247Z,57476.03
2023-05-24T01:12:00.045Z,57425.94
2023-05-24T01:14:33.964Z,57405.06
2023-05-24T01:17:04.229Z,57421.78
2023-05-24T01:19:33.564Z,57455.16
2023-05-24T01:22:14.278Z,57417.59
2023-05-24T01:24:56.570Z,57428.03
2023-05-24T01:27:24.211Z,57482.31
2023-05-24T01:29:53.621Z,57448.91
2023-05-24T01:32:20.776Z,57428.03
2023-05-24T01:34:47.690Z,57461.44
2023-05-24T01:37:14.513Z,57478.13
2023-05-24T01:39:42.914Z,57444.72
2023-05-24T01:42:26.956Z,57444.72
2023-05-24T01:44:57.316Z,57421.78
2023-05-24T01:47:36.095Z,57411.34
2023-05-24T01:50:20.848Z,57428.03
2023-05-24T01:52:50.806Z,57415.50
2023-05-24T01:55:18.848Z,57428.03
2023-05-24T01:57:49.341Z,57440.56
2023-05-24T02:00:18.585Z,57409.25
2023-05-24T02:02:46.190Z,57453.09
2023-05-24T02:05:13.370Z,57457.25
2023-05-24T02:07:41.605Z,57446.81
2023-05-24T02:10:09.295Z,57465.59
2023-05-24T02:12:36.180Z,57430.13
2023-05-24T02:15:03.045Z,57438.47
2023-05-24T02:17:33.070Z,57446.81
2023-05-24T02:20:00.375Z,57455.16
2023-05-24T02:22:27.607Z,57509.44
2023-05-24T02:24:54.824Z,57400.91
2023-05-24T02:27:21.710Z,57413.44
2023-05-24T02:29:48.476Z,57415.50
2023-05-24T02:32:15.104Z,57421.78
2023-05-24T02:34:42.801Z,57430.13
2023-05-24T02:37:09.518Z,57453.09
2023-05-24T02:39:36.151Z,57421.78
2023-05-24T02:42:04.854Z,57440.56
2023-05-24T02:44:31.573Z,57415.50
2023-05-24T02:46:58.713Z,57453.09
2023-05-24T02:49:25.384Z,57459.34
2023-05-24T02:51:53.008Z,57459.34
2023-05-24T02:54:20.403Z,57438.47
2023-05-24T02:56:48.077Z,57430.13
2023-05-24T02:59:15.068Z,57425.94
2023-05-24T03:01:41.924Z,57438.47
2023-05-24T03:04:08.796Z,57461.44
2023-05-24T03:06:36.247Z,57415.50
2023-05-24T03:09:02.841Z,57428.03
2023-05-24T03:11:29.474Z,57444.72
2023-05-24T03:13:56.219Z,57455.16
2023-05-24T03:16:23.420Z,57428.03
2023-05-24T03:18:51.110Z,57413.44
2023-05-24T03:21:21.008Z,57457.25
2023-05-24T03:23:48.117Z,57438.47
2023-05-24T03:26:14.924Z,57423.88
2023-05-24T03:28:42.349Z,57453.09
2023-05-24T03:31:09.217Z,57394.63
2023-05-24T03:33:36.415Z,57428.03
2023-05-24T03:36:04.330Z,57425.94
2023-05-24T03:38:31.932Z,57430.13
2023-05-24T03:40:59.322Z,57417.59
2023-05-24T03:43:26.449Z,57400.91
2023-05-24T03:45:54.092Z,57467.69
2023-05-24T03:48:21.169Z,57425.94
2023-05-24T03:50:48.346Z,57446.81
2023-05-24T03:53:15.460Z,57388.38
2023-05-24T03:55:42.289Z,57380.03
2023-05-24T03:58:09.278Z,57384.19
2023-05-24T04:00:36.265Z,57390.47
2023-05-24T04:03:03.402Z,57373.75
2023-05-24T04:05:30.105Z,57377.94
2023-05-24T04:07:57.001Z,57415.50
2023-05-24T04:10:23.769Z,57365.41
2023-05-24T04:12:50.591Z,57425.94
2023-05-24T04:15:17.556Z,57382.13
2023-05-24T04:17:45.785Z,57377.94
2023-05-24T04:20:13.137Z,57346.63
2023-05-24T04:22:39.890Z,57323.66
2023-05-24T04:25:07.840Z,57344.53
2023-05-24T04:27:36.410Z,57367.50
2023-05-24T04:30:03.453Z,57369.59
2023-05-24T04:32:30.513Z,57357.06
2023-05-24T04:34:57.550Z,57363.31
2023-05-24T04:37:24.816Z,57363.31
2023-05-24T04:39:51.878Z,57321.59
2023-05-24T04:42:18.911Z,57365.41
2023-05-24T04:44:45.602Z,57380.03
2023-05-24T04:47:13.040Z,57352.91
2023-05-24T04:49:40.043Z,57369.59
2023-05-24T04:52:07.479Z,57371.69
2023-05-24T04:54:34.755Z,57325.75
2023-05-24T04:57:01.624Z,57306.97
2023-05-24T04:59:28.236Z,57352.91
2023-05-24T05:01:54.936Z,57336.19
2023-05-24T05:04:21.691Z,57306.97
2023-05-24T05:06:48.716Z,57319.50
2023-05-24T05:09:16.075Z,57325.75
2023-05-24T05:11:43.482Z,57344.53
2023-05-24T05:14:10.569Z,57354.97
2023-05-24T05:16:38.010Z,57334.09
2023-05-24T05:19:05.890Z,57352.91
2023-05-24T05:21:33.292Z,57321.59
2023-05-24T05:24:01.621Z,57354.97
2023-05-24T05:26:28.846Z,57344.53
2023-05-24T05:28:56.083Z,57361.25
2023-05-24T05:31:23.074Z,57342.47
2023-05-24T05:33:50.102Z,57313.22
2023-05-24T05:36:17.012Z,57313.22
2023-05-24T05:38:43.933Z,57344.53
2023-05-24T05:41:10.949Z,57306.97
2023-05-24T05:43:39.641Z,57329.94
2023-05-24T05:46:07.063Z,57309.06
2023-05-24T05:48:34.115Z,57302.81
2023-05-24T05:51:01.138Z,57313.22
2023-05-24T05:53:27.868Z,57352.91
2023-05-24T05:55:54.949Z,57334.09
2023-05-24T05:58:21.719Z,57300.72
2023-05-24T06:00:48.572Z,57342.47
2023-05-24T06:03:15.460Z,57340.38
2023-05-24T06:05:43.784Z,57325.75
2023-05-24T06:08:10.513Z,57317.41
2023-05-24T06:10:38.779Z,57302.81
2023-05-24T06:13:05.537Z,57273.56
2023-05-24T06:15:33.392Z,57306.97
2023-05-24T06:18:02.243Z,57323.66
2023-05-24T06:20:29.290Z,57273.56
2023-05-24T06:22:57.479Z,57267.31
2023-05-24T06:25:24.840Z,57315.31
2023-05-24T06:27:51.935Z,57323.66
2023-05-24T06:30:19.023Z,57340.38
2023-05-24T06:32:46.101Z,57340.38
2023-05-24T06:35:13.312Z,57332.03
2023-05-24T06:37:40.002Z,57302.81
2023-05-24T06:40:09.414Z,57313.22
2023-05-24T06:42:37.172Z,57357.06
2023-05-24T06:45:04.627Z,57325.75
2023-05-24T06:47:31.869Z,57306.97
2023-05-24T06:49:59.174Z,57317.41
2023-05-24T06:52:25.983Z,57306.97
2023-05-24T06:54:52.971Z,57275.66
2023-05-24T06:57:19.685Z,57288.19
2023-05-24T06:59:46.885Z,57279.84
2023-05-24T07:02:13.694Z,57286.09
2023-05-24T07:04:43.402Z,57300.72
2023-05-24T07:07:13.302Z,57277.75
2023-05-24T07:09:42.312Z,57313.22
2023-05-24T07:12:09.408Z,57254.78
2023-05-24T07:14:36.518Z,57309.06
2023-05-24T07:17:03.448Z,57348.72
2023-05-24T07:19:30.482Z,57346.63
2023-05-24T07:21:57.216Z,57296.53
2023-05-24T07:24:24.310Z,57321.59
2023-05-24T07:26:52.204Z,57292.38
2023-05-24T07:29:18.957Z,57321.59
2023-05-24T07:31:45.889Z,57329.94
2023-05-24T07:34:12.586Z,57371.69
2023-05-24T07:36:41.047Z,57325.75
2023-05-24T07:39:10.688Z,57321.59
2023-05-24T07:41:37.390Z,57338.28
2023-05-24T07:44:04.701Z,57296.53
2023-05-24T07:46:32.706Z,57317.41
2023-05-24T07:48:59.518Z,57348.72
2023-05-24T07:51:26.767Z,57334.09
2023-05-24T07:53:53.607Z,57338.28
2023-05-24T07:56:20.314Z,57300.72
2023-05-24T07:58:47.628Z,57288.19
2023-05-24T08:01:14.570Z,57334.09
2023-05-24T08:03:41.442Z,57311.16
2023-05-24T08:06:08.758Z,57296.53
2023-05-24T08:08:36.342Z,57286.09
2023-05-24T08:11:03.187Z,57284.00
2023-05-24T08:13:30.027Z,57348.72
2023-05-24T08:15:58.568Z,57298.63
2023-05-24T08:18:25.293Z,57315.31
2023-05-24T08:20:52.197Z,57313.22
2023-05-24T08:23:19.216Z,57309.06
2023-05-24T08:25:46.157Z,57321.59
2023-05-24T08:28:13.159Z,57296.53
2023-05-24T08:30:40.149Z,57292.38
2023-05-24T08:33:07.077Z,57284.00
2023-05-24T08:35:33.922Z,57302.81
2023-05-24T08:38:01.011Z,57290.28
2023-05-24T08:40:27.949Z,57313.22
2023-05-24T08:42:59.622Z,57340.38
2023-05-24T08:45:29.408Z,57344.53
2023-05-24T08:47:58.532Z,57336.19
2023-05-24T08:50:25.497Z,57336.19
2023-05-24T08:52:53.079Z,57315.31
2023-05-24T08:55:20.413Z,57309.06
2023-05-24T08:57:47.876Z,57325.75
2023-05-24T09:00:15.598Z,57350.81
2023-05-24T09:02:43.739Z,57338.28
2023-05-24T09:05:12.547Z,57323.66
2023-05-24T09:07:41.140Z,57315.31
2023-05-24T09:10:09.677Z,57346.63
2023-05-24T09:12:44.269Z,57359.16
2023-05-24T09:15:11.644Z,57369.59
2023-05-24T09:17:39.192Z,57375.84
2023-05-24T09:20:11.063Z,57367.50
2023-05-24T09:22:41.014Z,57357.06
2023-05-24T09:25:10.215Z,57363.31
2023-05-24T09:27:37.900Z,57363.31
2023-05-24T09:30:09.148Z,57342.47
2023-05-24T09:32:35.943Z,57319.50
2023-05-24T09:35:02.768Z,57334.09
2023-05-24T09:37:32.675Z,57363.31
2023-05-24T09:40:01.873Z,57405.06
2023-05-24T09:42:29.563Z,57380.03
2023-05-24T09:45:12.761Z,57334.09
2023-05-24T09:47:41.590Z,57369.59
2023-05-24T09:50:17.627Z,57375.84
2023-05-24T09:52:45.295Z,57373.75
2023-05-24T09:55:18.254Z,57346.63
2023-05-24T09:57:49.976Z,57327.84
2023-05-24T10:00:22.674Z,57336.19
2023-05-24T10:03:08.190Z,57321.59
2023-05-24T10:05:36.011Z,57323.66
2023-05-24T10:08:05.399Z,57342.47
2023-05-24T10:10:33.968Z,57371.69
2023-05-24T10:13:01.880Z,57352.91
2023-05-24T10:15:30.197Z,57392.56
2023-05-24T10:17:58.474Z,57311.16
2023-05-24T10:20:25.549Z,57359.16
2023-05-24T10:22:55.998Z,57354.97
2023-05-24T10:25:28.602Z,57380.03
2023-05-24T10:28:03.717Z,57380.03
2023-05-24T10:30:37.725Z,57371.69
2023-05-24T10:33:08.349Z,57340.38
2023-05-24T10:35:38.383Z,57334.09
2023-05-24T10:38:09.612Z,57405.06
2023-05-24T10:40:42.182Z,57348.72
2023-05-24T10:43:09.689Z,57365.41
2023-05-24T10:45:41.945Z,57352.91
2023-05-24T10:48:28.964Z,57340.38
2023-05-24T10:50:56.199Z,57329.94
2023-05-24T10:53:26.347Z,57367.50
2023-05-24T10:55:57.417Z,57361.25
2023-05-24T10:59:06.426Z,57350.81
2023-05-24T11:01:33.914Z,57340.38
2023-05-24T11:04:17.186Z,57361.25
2023-05-24T11:07:05.355Z,57342.47
2023-05-24T11:09:33.581Z,57317.41
2023-05-24T11:12:04.248Z,57371.69
2023-05-24T11:14:32.540Z,57359.16
2023-05-24T11:17:03.179Z,57359.16
2023-05-24T11:19:35.493Z,57373.75
2023-05-24T11:22:06.264Z,57346.63
2023-05-24T11:24:33.835Z,57371.69
2023-05-24T11:27:02.690Z,57365.41
2023-05-24T11:29:30.792Z,57348.72
2023-05-24T11:32:07.951Z,57336.19
2023-05-24T11:34:35.303Z,57394.63
2023-05-24T11:37:03.220Z,57344.53
2023-05-24T11:39:33.967Z,57373.75
2023-05-24T11:42:02.520Z,57300.72
2023-05-24T11:44:32.026Z,57342.47
2023-05-24T11:47:03.465Z,57338.28
2023-05-24T11:49:30.287Z,57323.66
2023-05-24T11:51:58.651Z,57396.72
2023-05-24T11:54:27.979Z,57348.72
2023-05-24T11:56:55.827Z,57359.16
2023-05-24T11:59:25.648Z,57338.28
2023-05-24T12:02:00.494Z,57354.97
2023-05-24T12:04:29.520Z,57325.75
2023-05-24T12:06:56.753Z,57309.06
2023-05-24T12:09:24.270Z,57336.19
2023-05-24T12:11:52.128Z,57329.94
2023-05-24T12:14:23.072Z,57363.31
2023-05-24T12:16:50.278Z,57338.28
2023-05-24T12:19:32.529Z,57350.81
2023-05-24T12:22:08.383Z,57332.03
2023-05-24T12:24:35.531Z,57369.59
2023-05-24T12:27:06.946Z,57302.81
2023-05-24T12:29:40.757Z,57313.22
2023-05-24T12:32:13.614Z,57363.31
2023-05-24T12:34:42.706Z,57329.94
2023-05-24T12:37:10.316Z,57384.19
2023-05-24T12:39:37.579Z,57325.75
2023-05-24T12:42:05.252Z,57336.19
2023-05-24T12:44:35.612Z,57338.28
2023-05-24T12:47:04.753Z,57338.28
2023-05-24T12:49:32.293Z,57290.28
2023-05-24T12:51:59.536Z,57325.75
2023-05-24T12:54:27.961Z,57317.41
2023-05-24T12:56:56.922Z,57338.28
2023-05-24T12:59:24.267Z,57327.84
2023-05-24T13:01:52.211Z,57336.19
2023-05-24T13:04:21.846Z,57321.59
2023-05-24T13:06:48.906Z,57334.09
2023-05-24T13:09:18.380Z,57336.19
2023-05-24T13:11:45.702Z,57340.38
2023-05-24T13:14:12.808Z,57334.09
2023-05-24T13:16:39.900Z,57321.59
2023-05-24T13:19:06.971Z,57315.31
2023-05-24T13:21:33.930Z,57332.03
2023-05-24T13:24:00.736Z,57344.53
2023-05-24T13:26:28.637Z,57327.84
2023-05-24T13:31:25.552Z,57348.72
2023-05-24T13:33:52.454Z,57357.06
2023-05-24T13:36:19.177Z,57317.41
2023-05-24T13:38:46.355Z,57346.63
2023-05-24T13:41:13.585Z,57350.81
2023-05-24T13:43:41.129Z,57325.75
2023-05-24T13:46:09.496Z,57390.47
2023-05-24T13:48:37.490Z,57361.25
2023-05-24T13:51:04.305Z,57365.41
2023-05-24T13:53:31.210Z,57344.53
2023-05-24T13:55:58.159Z,57352.91
2023-05-24T13:58:24.829Z,57334.09
2023-05-24T14:00:51.490Z,57334.09
2023-05-24T14:03:18.307Z,57369.59
2023-05-24T14:05:45.413Z,57380.03
2023-05-24T14:08:12.516Z,57377.94
2023-05-24T14:10:39.290Z,57380.03
2023-05-24T14:15:36.586Z,57344.53
2023-05-24T14:18:08.248Z,57296.53
2023-05-24T14:20:40.404Z,57346.63
2023-05-24T14:23:08.421Z,57346.63
2023-05-24T14:25:35.418Z,57344.53
2023-05-24T14:28:03.793Z,57354.97
2023-05-24T14:30:33.703Z,57332.03
2023-05-24T14:33:03.246Z,57350.81
2023-05-24T14:35:30.366Z,57325.75
2023-05-24T14:37:57.315Z,57323.66
2023-05-24T14:40:24.165Z,57334.09
2023-05-24T14:42:51.030Z,57319.50
2023-05-24T14:45:17.763Z,57357.06
2023-05-24T14:47:44.511Z,57325.75
2023-05-24T14:50:13.472Z,57311.16
2023-05-24T14:52:40.326Z,57359.16
2023-05-24T14:55:07.412Z,57306.97
2023-05-24T14:57:34.070Z,57321.59
2023-05-24T15:00:01.116Z,57334.09
2023-05-24T15:02:27.834Z,57359.16
2023-05-24T15:04:54.893Z,57365.41
2023-05-24T15:07:23.090Z,57365.41
2023-05-24T15:09:50.091Z,57375.84
2023-05-24T15:12:17.281Z,57363.31
2023-05-24T15:14:43.990Z,57357.06
2023-05-24T15:17:11.511Z,57338.28
2023-05-24T15:19:38.637Z,57384.19
2023-05-24T15:22:05.738Z,57373.75
2023-05-24T15:24:32.771Z,57396.72
2023-05-24T15:26:59.529Z,57371.69
2023-05-24T15:29:26.355Z,57375.84
2023-05-24T15:31:53.313Z,57350.81
2023-05-24T15:34:21.500Z,57367.50
2023-05-24T15:36:50.446Z,57352.91
2023-05-24T15:39:18.156Z,57319.50
2023-05-24T15:41:44.989Z,57302.81
2023-05-24T15:44:12.522Z,57361.25
2023-05-24T15:46:41.131Z,57311.16
2023-05-24T15:49:07.995Z,57359.16
2023-05-24T15:52:03.092Z,57340.38
2023-05-24T15:54:21.769Z,57334.09
2023-05-24T15:56:49.987Z,57329.94
2023-05-24T15:59:16.648Z,57342.47
2023-05-24T16:01:43.363Z,57327.84
2023-05-24T16:04:10.167Z,57309.06
2023-05-24T16:06:37.075Z,57327.84
2023-05-24T16:09:05.443Z,57334.09
2023-05-24T16:11:32.599Z,57309.06
2023-05-24T16:13:59.350Z,57329.94
2023-05-24T16:16:26.473Z,57309.06
2023-05-24T16:18:53.238Z,57302.81
2023-05-24T16:21:19.867Z,57325.75
2023-05-24T16:23:46.633Z,57352.91
2023-05-24T16:26:13.975Z,57317.41
2023-05-24T16:28:40.634Z,57309.06
2023-05-24T16:31:07.363Z,57350.81
2023-05-24T16:33:34.051Z,57334.09
2023-05-24T16:36:03.410Z,57342.47
2023-05-24T16:38:30.373Z,57321.59
2023-05-24T16:40:57.100Z,57350.81
2023-05-24T16:43:24.003Z,57329.94
2023-05-24T16:45:51.784Z,57323.66
2023-05-24T16:48:21.469Z,57309.06
2023-05-24T16:50:48.459Z,57375.84
2023-05-24T16:53:15.113Z,57313.22
2023-05-24T16:55:41.760Z,57357.06
2023-05-24T16:58:09.595Z,57363.31
2023-05-24T17:00:36.278Z,57361.25
2023-05-24T17:03:03.217Z,57336.19
2023-05-24T17:05:29.902Z,57342.47
2023-05-24T17:07:56.595Z,57323.66
2023-05-24T17:10:23.264Z,57311.16
2023-05-24T17:12:50.178Z,57346.63
2023-05-24T17:15:17.110Z,57352.91
2023-05-24T17:17:44.112Z,57313.22
2023-05-24T17:20:11.349Z,57304.88
2023-05-24T17:22:38.041Z,57338.28
2023-05-24T17:25:05.457Z,57363.31
2023-05-24T17:27:32.185Z,57329.94
2023-05-24T17:29:58.931Z,57359.16
2023-05-24T17:32:25.871Z,57336.19
2023-05-24T17:34:52.795Z,57361.25
2023-05-24T17:37:19.941Z,57336.19
2023-05-24T17:39:46.798Z,57319.50
2023-05-24T17:42:13.484Z,57382.13
2023-05-24T17:44:40.309Z,57369.59
2023-05-24T17:47:07.463Z,57380.03
2023-05-24T17:49:34.350Z,57352.91
2023-05-24T17:52:01.235Z,57329.94
2023-05-24T17:54:28.299Z,57340.38
2023-05-24T17:56:54.997Z,57350.81
2023-05-24T17:59:21.741Z,57367.50
2023-05-24T18:01:49.017Z,57357.06
2023-05-24T18:04:16.086Z,57323.66
2023-05-24T18:06:42.692Z,57363.31
2023-05-24T18:09:09.960Z,57329.94
2023-05-24T18:11:37.043Z,57371.69
2023-05-24T18:14:04.790Z,57340.38
2023-05-24T18:16:31.844Z,57363.31
2023-05-24T18:18:58.542Z,57363.31
2023-05-24T18:21:25.323Z,57344.53
2023-05-24T18:23:53.239Z,57332.03
2023-05-24T18:26:19.926Z,57371.69
2023-05-24T18:28:47.040Z,57340.38
2023-05-24T18:31:14.988Z,57359.16
2023-05-24T18:33:42.341Z,57354.97
2023-05-24T18:36:09.581Z,57352.91
2023-05-24T18:38:36.970Z,57359.16
2023-05-24T18:41:06.394Z,57361.25
2023-05-24T18:43:33.641Z,57367.50
2023-05-24T18:46:01.208Z,57375.84
2023-05-24T18:48:27.933Z,57361.25
2023-05-24T18:50:54.975Z,57352.91
2023-05-24T18:53:21.750Z,57327.84
2023-05-24T18:55:48.681Z,57344.53
2023-05-24T18:58:15.341Z,57359.16
2023-05-24T19:00:42.020Z,57367.50
2023-05-24T19:03:11.297Z,57313.22
2023-05-24T19:05:40.099Z,57369.59
2023-05-24T19:08:08.468Z,57332.03
2023-05-24T19:10:35.096Z,57357.06
2023-05-24T19:13:01.831Z,57332.03
2023-05-24T19:15:28.877Z,57340.38
2023-05-24T19:17:57.905Z,57325.75
2023-05-24T19:20:25.402Z,57359.16
2023-05-24T19:22:52.098Z,57338.28
2023-05-24T19:25:21.363Z,57309.06
2023-05-24T19:27:59.090Z,57338.28
2023-05-24T19:30:26.412Z,57338.28
2023-05-24T19:32:53.164Z,57409.25
2023-05-24T19:35:19.930Z,57354.97
2023-05-24T19:37:46.602Z,57373.75
2023-05-24T19:40:13.375Z,57327.84
2023-05-24T19:42:40.080Z,57338.28
2023-05-24T19:45:07.664Z,57327.84
2023-05-24T19:47:34.444Z,57344.53
2023-05-24T19:50:01.523Z,57369.59
2023-05-24T19:52:28.068Z,57367.50
2023-05-24T19:54:54.904Z,57313.22
2023-05-24T19:57:21.550Z,57336.19
2023-05-24T19:59:48.541Z,57348.72
2023-05-24T20:02:15.538Z,57377.94
2023-05-24T20:04:43.983Z,57363.31
2023-05-24T20:07:11.499Z,57357.06
2023-05-24T20:09:38.453Z,57380.03
2023-05-24T20:12:05.269Z,57350.81
2023-05-24T20:14:32.059Z,57334.09
2023-05-24T20:16:59.279Z,57384.19
2023-05-24T20:19:27.229Z,57350.81
2023-05-24T20:21:54.434Z,57340.38
2023-05-24T20:24:21.208Z,57359.16
2023-05-24T20:26:48.365Z,57344.53
2023-05-24T20:29:15.249Z,57311.16
2023-05-24T20:31:42.657Z,57344.53
2023-05-24T20:34:09.335Z,57342.47
2023-05-24T20:36:36.976Z,57340.38
2023-05-24T20:39:03.973Z,57321.59
2023-05-24T20:41:30.787Z,57403.00
2023-05-24T20:43:57.485Z,57392.56
2023-05-24T20:46:24.642Z,57375.84
2023-05-24T20:48:52.101Z,57365.41
2023-05-24T20:51:19.932Z,57327.84
2023-05-24T20:53:46.911Z,57357.06
2023-05-24T20:56:13.610Z,57323.66
2023-05-24T20:58:41.496Z,57363.31
2023-05-24T21:01:08.722Z,57346.63
2023-05-24T21:03:35.910Z,57390.47
2023-05-24T21:06:03.004Z,57350.81
2023-05-24T21:08:29.636Z,57361.25
2023-05-24T21:10:56.895Z,57321.59
2023-05-24T21:13:25.612Z,57363.31
2023-05-24T21:15:52.327Z,57375.84
2023-05-24T21:18:18.999Z,57365.41
2023-05-24T21:20:45.686Z,57346.63
2023-05-24T21:23:12.408Z,57336.19
2023-05-24T21:25:39.168Z,57346.63
2023-05-24T21:28:06.123Z,57375.84
2023-05-24T21:30:32.776Z,57359.16
2023-05-24T21:32:59.671Z,57336.19
2023-05-24T21:35:26.670Z,57384.19
2023-05-24T21:37:53.631Z,57392.56
2023-05-24T21:40:20.394Z,57350.81
2023-05-24T21:42:47.163Z,57359.16
2023-05-24T21:45:14.308Z,57334.09
2023-05-24T21:47:41.626Z,57371.69
2023-05-24T21:50:08.783Z,57384.19
2023-05-24T21:52:35.390Z,57354.97
2023-05-24T21:55:02.510Z,57382.13
2023-05-24T21:57:29.212Z,57373.75
2023-05-24T21:59:56.161Z,57350.81
2023-05-24T22:02:22.862Z,57371.69
2023-05-24T22:04:49.850Z,57367.50
2023-05-24T22:07:16.481Z,57371.69
2023-05-24T22:09:43.138Z,57342.47
2023-05-24T22:12:09.832Z,57352.91
2023-05-24T22:14:36.604Z,57365.41
2023-05-24T22:17:03.666Z,57396.72
2023-05-24T22:19:39.409Z,57363.31
2023-05-24T22:22:08.295Z,57325.75
2023-05-24T22:24:34.954Z,57365.41
2023-05-24T22:27:02.582Z,57377.94
2023-05-24T22:29:29.321Z,57398.81
2023-05-24T22:31:56.163Z,57359.16
2023-05-24T22:34:27.451Z,57367.50
2023-05-24T22:36:54.647Z,57373.75
2023-05-24T22:39:21.882Z,57415.50
2023-05-24T22:41:48.583Z,57346.63
2023-05-24T22:44:15.931Z,57354.97
2023-05-24T22:46:42.874Z,57386.28
2023-05-24T22:49:13.287Z,57373.75
2023-05-24T22:51:44.430Z,57363.31
2023-05-24T22:54:11.866Z,57371.69
2023-05-24T22:56:39.160Z,57338.28
2023-05-24T22:59:06.721Z,57384.19
2023-05-24T23:01:33.861Z,57346.63
2023-05-24T23:04:15.880Z,57400.91
2023-05-24T23:06:46.461Z,57363.31
2023-05-24T23:09:13.408Z,57332.03
2023-05-24T23:11:40.483Z,57371.69
2023-05-24T23:14:09.248Z,57338.28
2023-05-24T23:16:45.531Z,57407.16
2023-05-24T23:19:18.610Z,57342.47
2023-05-24T23:21:45.674Z,57344.53
2023-05-24T23:24:14.712Z,57365.41
2023-05-24T23:26:41.997Z,57357.06
2023-05-24T23:29:09.692Z,57377.94
2023-05-24T23:31:36.614Z,57350.81
2023-05-24T23:34:04.102Z,57394.63
2023-05-24T23:36:30.912Z,57367.50
2023-05-24T23:38:57.690Z,57377.94
2023-05-24T23:41:24.444Z,57357.06
2023-05-24T23:43:52.436Z,57371.69
2023-05-24T23:46:20.233Z,57365.41
2023-05-24T23:48:47.131Z,57377.94
2023-05-24T23:51:14.211Z,57359.16
2023-05-24T23:53:41.003Z,57365.41
2023-05-24T23:56:07.717Z,57354.97
2023-05-24T23:58:34.567Z,57421.78
